sensor_id;sensor_type;location;lat;lon;timestamp;temperature;humidity
21031;DHT22;61072;47.808;7.636;2023-04-07T00:00:04;10.20;99.90
21031;DHT22;61072;47.808;7.636;2023-04-07T00:02:31;10.10;99.90
21031;DHT22;61072;47.808;7.636;2023-04-07T00:04:58;10.10;99.90
21031;DHT22;61072;47.808;7.636;2023-04-07T00:07:25;10.10;99.90
21031;DHT22;61072;47.808;7.636;2023-04-07T00:09:52;10.10;99.90
21031;DHT22;61072;47.808;7.636;2023-04-07T00:12:19;10.00;99.90
21031;DHT22;61072;47.808;7.636;2023-04-07T00:14:46;10.00;99.90
21031;DHT22;61072;47.808;7.636;2023-04-07T00:17:12;10.10;99.90
21031;DHT22;61072;47.808;7.636;2023-04-07T00:19:39;10.10;99.90
21031;DHT22;61072;47.808;7.636;2023-04-07T00:22:06;10.00;99.90
21031;DHT22;61072;47.808;7.636;2023-04-07T00:24:32;10.00;99.90
21031;DHT22;61072;47.808;7.636;2023-04-07T00:27:00;10.00;99.90
21031;DHT22;61072;47.808;7.636;2023-04-07T00:29:27;10.00;99.90
21031;DHT22;61072;47.808;7.636;2023-04-07T00:31:54;10.00;99.90
21031;DHT22;61072;47.808;7.636;2023-04-07T00:34:21;10.00;99.90
21031;DHT22;61072;47.808;7.636;2023-04-07T00:36:48;10.00;99.90
21031;DHT22;61072;47.808;7.636;2023-04-07T00:39:18;10.00;99.90
21031;DHT22;61072;47.808;7.636;2023-04-07T00:41:45;10.00;99.90
21031;DHT22;61072;47.808;7.636;2023-04-07T00:44:13;10.00;99.90
21031;DHT22;61072;47.808;7.636;2023-04-07T00:46:40;10.00;99.90
21031;DHT22;61072;47.808;7.636;2023-04-07T00:49:07;9.90;99.90
21031;DHT22;61072;47.808;7.636;2023-04-07T00:51:36;9.90;99.90
21031;DHT22;61072;47.808;7.636;2023-04-07T00:54:03;9.90;99.90
21031;DHT22;61072;47.808;7.636;2023-04-07T00:56:31;9.90;99.90
21031;DHT22;61072;47.808;7.636;2023-04-07T00:58:57;9.90;99.90
21031;DHT22;61072;47.808;7.636;2023-04-07T01:01:29;10.00;99.90
21031;DHT22;61072;47.808;7.636;2023-04-07T01:04:00;10.00;99.90
21031;DHT22;61072;47.808;7.636;2023-04-07T01:06:34;10.00;99.90
21031;DHT22;61072;47.808;7.636;2023-04-07T01:09:22;10.00;99.90
21031;DHT22;61072;47.808;7.636;2023-04-07T01:14:23;10.00;99.90
21031;DHT22;61072;47.808;7.636;2023-04-07T01:16:51;10.00;99.90
21031;DHT22;61072;47.808;7.636;2023-04-07T01:19:33;10.00;99.90
21031;DHT22;61072;47.808;7.636;2023-04-07T01:22:06;10.00;99.90
21031;DHT22;61072;47.808;7.636;2023-04-07T01:25:15;10.00;99.90
21031;DHT22;61072;47.808;7.636;2023-04-07T01:28:14;10.00;99.90
21031;DHT22;61072;47.808;7.636;2023-04-07T01:30:48;10.00;99.90
21031;DHT22;61072;47.808;7.636;2023-04-07T01:33:16;9.90;99.90
21031;DHT22;61072;47.808;7.636;2023-04-07T01:35:45;9.90;99.90
21031;DHT22;61072;47.808;7.636;2023-04-07T01:38:12;9.90;99.90
21031;DHT22;61072;47.808;7.636;2023-04-07T01:40:40;9.90;99.90
21031;DHT22;61072;47.808;7.636;2023-04-07T01:43:07;9.90;99.90
21031;DHT22;61072;47.808;7.636;2023-04-07T01:45:35;9.90;99.90
21031;DHT22;61072;47.808;7.636;2023-04-07T01:48:05;9.80;99.90
21031;DHT22;61072;47.808;7.636;2023-04-07T01:50:33;9.80;99.90
21031;DHT22;61072;47.808;7.636;2023-04-07T01:53:00;9.80;99.90
21031;DHT22;61072;47.808;7.636;2023-04-07T01:55:29;9.70;99.90
21031;DHT22;61072;47.808;7.636;2023-04-07T01:57:55;9.70;99.90
21031;DHT22;61072;47.808;7.636;2023-04-07T02:00:22;9.70;99.90
21031;DHT22;61072;47.808;7.636;2023-04-07T02:02:53;9.60;99.90
21031;DHT22;61072;47.808;7.636;2023-04-07T02:05:21;9.60;99.90
21031;DHT22;61072;47.808;7.636;2023-04-07T02:08:02;9.60;99.90
21031;DHT22;61072;47.808;7.636;2023-04-07T02:10:33;9.50;99.90
21031;DHT22;61072;47.808;7.636;2023-04-07T02:13:02;9.50;99.90
21031;DHT22;61072;47.808;7.636;2023-04-07T02:15:30;9.50;99.90
21031;DHT22;61072;47.808;7.636;2023-04-07T02:17:58;9.50;99.90
21031;DHT22;61072;47.808;7.636;2023-04-07T02:20:26;9.40;99.90
21031;DHT22;61072;47.808;7.636;2023-04-07T02:22:53;9.40;99.90
21031;DHT22;61072;47.808;7.636;2023-04-07T02:25:26;9.40;99.90
21031;DHT22;61072;47.808;7.636;2023-04-07T02:27:54;9.40;99.90
21031;DHT22;61072;47.808;7.636;2023-04-07T02:30:22;9.40;99.90
21031;DHT22;61072;47.808;7.636;2023-04-07T02:32:49;9.40;99.90
21031;DHT22;61072;47.808;7.636;2023-04-07T02:35:16;9.40;99.90
21031;DHT22;61072;47.808;7.636;2023-04-07T02:37:43;9.30;99.90
21031;DHT22;61072;47.808;7.636;2023-04-07T02:40:10;9.30;99.90
21031;DHT22;61072;47.808;7.636;2023-04-07T02:42:37;9.30;99.90
21031;DHT22;61072;47.808;7.636;2023-04-07T02:45:05;9.30;99.90
21031;DHT22;61072;47.808;7.636;2023-04-07T02:47:33;9.30;99.90
21031;DHT22;61072;47.808;7.636;2023-04-07T02:50:00;9.20;99.90
21031;DHT22;61072;47.808;7.636;2023-04-07T02:52:26;9.20;99.90
21031;DHT22;61072;47.808;7.636;2023-04-07T02:54:53;9.20;99.90
21031;DHT22;61072;47.808;7.636;2023-04-07T02:57:19;9.20;99.90
21031;DHT22;61072;47.808;7.636;2023-04-07T02:59:46;9.10;99.90
21031;DHT22;61072;47.808;7.636;2023-04-07T03:02:13;9.10;99.90
21031;DHT22;61072;47.808;7.636;2023-04-07T03:04:40;9.00;99.90
21031;DHT22;61072;47.808;7.636;2023-04-07T03:07:07;9.00;99.90
21031;DHT22;61072;47.808;7.636;2023-04-07T03:09:34;8.90;99.90
21031;DHT22;61072;47.808;7.636;2023-04-07T03:12:00;8.90;99.90
21031;DHT22;61072;47.808;7.636;2023-04-07T03:14:27;8.90;99.90
21031;DHT22;61072;47.808;7.636;2023-04-07T03:16:54;8.90;99.90
21031;DHT22;61072;47.808;7.636;2023-04-07T03:19:22;8.90;99.90
21031;DHT22;61072;47.808;7.636;2023-04-07T03:21:49;8.90;99.90
21031;DHT22;61072;47.808;7.636;2023-04-07T03:24:15;8.90;99.90
21031;DHT22;61072;47.808;7.636;2023-04-07T03:26:42;8.90;99.90
21031;DHT22;61072;47.808;7.636;2023-04-07T03:29:09;8.90;99.90
21031;DHT22;61072;47.808;7.636;2023-04-07T03:31:36;8.90;99.90
21031;DHT22;61072;47.808;7.636;2023-04-07T03:34:03;8.90;99.90
21031;DHT22;61072;47.808;7.636;2023-04-07T03:36:30;8.90;99.90
21031;DHT22;61072;47.808;7.636;2023-04-07T03:38:57;8.90;99.90
21031;DHT22;61072;47.808;7.636;2023-04-07T03:41:24;8.90;99.90
21031;DHT22;61072;47.808;7.636;2023-04-07T03:43:50;8.90;99.90
21031;DHT22;61072;47.808;7.636;2023-04-07T03:46:21;8.90;99.90
21031;DHT22;61072;47.808;7.636;2023-04-07T03:48:47;8.90;99.90
21031;DHT22;61072;47.808;7.636;2023-04-07T03:51:14;8.90;99.90
21031;DHT22;61072;47.808;7.636;2023-04-07T03:53:41;8.90;99.90
21031;DHT22;61072;47.808;7.636;2023-04-07T03:56:08;8.90;99.90
21031;DHT22;61072;47.808;7.636;2023-04-07T03:58:35;8.90;99.90
21031;DHT22;61072;47.808;7.636;2023-04-07T04:01:02;8.90;99.90
21031;DHT22;61072;47.808;7.636;2023-04-07T04:03:29;8.90;99.90
21031;DHT22;61072;47.808;7.636;2023-04-07T04:05:56;8.90;99.90
21031;DHT22;61072;47.808;7.636;2023-04-07T04:08:22;8.90;99.90
21031;DHT22;61072;47.808;7.636;2023-04-07T04:10:49;8.90;99.90
21031;DHT22;61072;47.808;7.636;2023-04-07T04:13:16;8.90;99.90
21031;DHT22;61072;47.808;7.636;2023-04-07T04:15:43;8.90;99.90
21031;DHT22;61072;47.808;7.636;2023-04-07T04:18:10;8.90;99.90
21031;DHT22;61072;47.808;7.636;2023-04-07T04:20:37;8.90;99.90
21031;DHT22;61072;47.808;7.636;2023-04-07T04:23:03;8.90;99.90
21031;DHT22;61072;47.808;7.636;2023-04-07T04:25:30;8.90;99.90
21031;DHT22;61072;47.808;7.636;2023-04-07T04:27:57;8.90;99.90
21031;DHT22;61072;47.808;7.636;2023-04-07T04:30:23;8.90;99.90
21031;DHT22;61072;47.808;7.636;2023-04-07T04:32:50;8.90;99.90
21031;DHT22;61072;47.808;7.636;2023-04-07T04:35:17;8.90;99.90
21031;DHT22;61072;47.808;7.636;2023-04-07T04:37:43;8.90;99.90
21031;DHT22;61072;47.808;7.636;2023-04-07T04:40:11;8.90;99.90
21031;DHT22;61072;47.808;7.636;2023-04-07T04:42:37;8.90;99.90
21031;DHT22;61072;47.808;7.636;2023-04-07T04:45:04;8.90;99.90
21031;DHT22;61072;47.808;7.636;2023-04-07T04:47:32;8.90;99.90
21031;DHT22;61072;47.808;7.636;2023-04-07T04:49:58;8.80;99.90
21031;DHT22;61072;47.808;7.636;2023-04-07T04:52:25;8.80;99.90
21031;DHT22;61072;47.808;7.636;2023-04-07T04:54:52;8.80;99.90
21031;DHT22;61072;47.808;7.636;2023-04-07T04:57:19;8.80;99.90
21031;DHT22;61072;47.808;7.636;2023-04-07T04:59:46;8.90;99.90
21031;DHT22;61072;47.808;7.636;2023-04-07T05:02:13;8.80;99.90
21031;DHT22;61072;47.808;7.636;2023-04-07T05:04:39;8.80;99.90
21031;DHT22;61072;47.808;7.636;2023-04-07T05:07:06;8.90;99.90
21031;DHT22;61072;47.808;7.636;2023-04-07T05:09:33;8.90;99.90
21031;DHT22;61072;47.808;7.636;2023-04-07T05:12:00;8.90;99.90
21031;DHT22;61072;47.808;7.636;2023-04-07T05:14:28;8.90;99.90
21031;DHT22;61072;47.808;7.636;2023-04-07T05:16:54;8.90;99.90
21031;DHT22;61072;47.808;7.636;2023-04-07T05:19:21;8.90;99.90
21031;DHT22;61072;47.808;7.636;2023-04-07T05:21:47;8.90;99.90
21031;DHT22;61072;47.808;7.636;2023-04-07T05:24:14;8.90;99.90
21031;DHT22;61072;47.808;7.636;2023-04-07T05:26:41;8.70;99.90
21031;DHT22;61072;47.808;7.636;2023-04-07T05:29:07;8.70;99.90
21031;DHT22;61072;47.808;7.636;2023-04-07T05:31:34;8.70;99.90
21031;DHT22;61072;47.808;7.636;2023-04-07T05:34:02;8.70;99.90
21031;DHT22;61072;47.808;7.636;2023-04-07T05:36:29;8.70;99.90
21031;DHT22;61072;47.808;7.636;2023-04-07T05:38:57;8.70;99.90
21031;DHT22;61072;47.808;7.636;2023-04-07T05:41:23;8.70;99.90
21031;DHT22;61072;47.808;7.636;2023-04-07T05:43:50;8.80;99.90
21031;DHT22;61072;47.808;7.636;2023-04-07T05:46:17;8.80;99.90
21031;DHT22;61072;47.808;7.636;2023-04-07T05:48:44;8.80;99.90
21031;DHT22;61072;47.808;7.636;2023-04-07T05:51:11;8.80;99.90
21031;DHT22;61072;47.808;7.636;2023-04-07T05:53:37;8.80;99.90
21031;DHT22;61072;47.808;7.636;2023-04-07T05:56:04;8.90;99.90
21031;DHT22;61072;47.808;7.636;2023-04-07T05:58:31;8.90;99.90
21031;DHT22;61072;47.808;7.636;2023-04-07T06:00:58;8.90;99.90
21031;DHT22;61072;47.808;7.636;2023-04-07T06:03:25;8.90;99.90
21031;DHT22;61072;47.808;7.636;2023-04-07T06:05:52;8.90;99.90
21031;DHT22;61072;47.808;7.636;2023-04-07T06:08:18;8.90;99.90
21031;DHT22;61072;47.808;7.636;2023-04-07T06:10:45;9.00;99.90
21031;DHT22;61072;47.808;7.636;2023-04-07T06:13:12;9.00;99.90
21031;DHT22;61072;47.808;7.636;2023-04-07T06:15:38;9.00;99.90
21031;DHT22;61072;47.808;7.636;2023-04-07T06:18:05;9.10;99.90
21031;DHT22;61072;47.808;7.636;2023-04-07T06:20:32;9.10;99.90
21031;DHT22;61072;47.808;7.636;2023-04-07T06:22:58;9.10;99.90
21031;DHT22;61072;47.808;7.636;2023-04-07T06:25:25;9.20;99.90
21031;DHT22;61072;47.808;7.636;2023-04-07T06:27:53;9.20;99.90
21031;DHT22;61072;47.808;7.636;2023-04-07T06:30:20;9.20;99.90
21031;DHT22;61072;47.808;7.636;2023-04-07T06:32:46;9.30;99.90
21031;DHT22;61072;47.808;7.636;2023-04-07T06:35:13;9.30;99.90
21031;DHT22;61072;47.808;7.636;2023-04-07T06:37:40;9.30;99.90
21031;DHT22;61072;47.808;7.636;2023-04-07T06:40:07;9.30;99.90
21031;DHT22;61072;47.808;7.636;2023-04-07T06:42:34;9.30;99.90
21031;DHT22;61072;47.808;7.636;2023-04-07T06:45:00;9.30;99.90
21031;DHT22;61072;47.808;7.636;2023-04-07T06:47:27;9.30;99.90
21031;DHT22;61072;47.808;7.636;2023-04-07T06:49:54;9.30;99.90
21031;DHT22;61072;47.808;7.636;2023-04-07T06:52:21;9.30;99.90
21031;DHT22;61072;47.808;7.636;2023-04-07T06:54:48;9.30;99.90
21031;DHT22;61072;47.808;7.636;2023-04-07T06:57:14;9.40;99.90
21031;DHT22;61072;47.808;7.636;2023-04-07T06:59:41;9.40;99.90
21031;DHT22;61072;47.808;7.636;2023-04-07T07:02:08;9.40;99.90
21031;DHT22;61072;47.808;7.636;2023-04-07T07:04:34;9.50;99.90
21031;DHT22;61072;47.808;7.636;2023-04-07T07:07:02;9.60;99.90
21031;DHT22;61072;47.808;7.636;2023-04-07T07:09:28;9.60;99.90
21031;DHT22;61072;47.808;7.636;2023-04-07T07:11:55;9.70;99.90
21031;DHT22;61072;47.808;7.636;2023-04-07T07:14:23;9.80;99.90
21031;DHT22;61072;47.808;7.636;2023-04-07T07:16:49;9.80;99.90
21031;DHT22;61072;47.808;7.636;2023-04-07T07:19:16;9.80;99.90
21031;DHT22;61072;47.808;7.636;2023-04-07T07:21:43;9.80;99.90
21031;DHT22;61072;47.808;7.636;2023-04-07T07:24:09;9.80;99.90
21031;DHT22;61072;47.808;7.636;2023-04-07T07:26:36;9.80;99.90
21031;DHT22;61072;47.808;7.636;2023-04-07T07:29:03;9.80;99.90
21031;DHT22;61072;47.808;7.636;2023-04-07T07:31:29;9.80;99.90
21031;DHT22;61072;47.808;7.636;2023-04-07T07:33:57;9.80;99.90
21031;DHT22;61072;47.808;7.636;2023-04-07T07:36:23;9.90;99.90
21031;DHT22;61072;47.808;7.636;2023-04-07T07:38:50;9.90;99.90
21031;DHT22;61072;47.808;7.636;2023-04-07T07:41:17;9.80;99.90
21031;DHT22;61072;47.808;7.636;2023-04-07T07:43:44;9.80;99.90
21031;DHT22;61072;47.808;7.636;2023-04-07T07:46:11;9.80;99.90
21031;DHT22;61072;47.808;7.636;2023-04-07T07:48:38;9.80;99.90
21031;DHT22;61072;47.808;7.636;2023-04-07T07:51:05;9.80;99.90
21031;DHT22;61072;47.808;7.636;2023-04-07T07:53:32;9.70;99.90
21031;DHT22;61072;47.808;7.636;2023-04-07T07:55:59;9.60;99.90
21031;DHT22;61072;47.808;7.636;2023-04-07T07:58:26;9.60;99.90
21031;DHT22;61072;47.808;7.636;2023-04-07T08:00:53;9.60;99.90
21031;DHT22;61072;47.808;7.636;2023-04-07T08:03:20;9.60;99.90
21031;DHT22;61072;47.808;7.636;2023-04-07T08:05:48;9.50;99.90
21031;DHT22;61072;47.808;7.636;2023-04-07T08:08:15;9.50;99.90
21031;DHT22;61072;47.808;7.636;2023-04-07T08:10:42;9.50;99.90
21031;DHT22;61072;47.808;7.636;2023-04-07T08:13:09;9.40;99.90
21031;DHT22;61072;47.808;7.636;2023-04-07T08:15:36;9.30;99.90
21031;DHT22;61072;47.808;7.636;2023-04-07T08:18:02;9.30;99.90
21031;DHT22;61072;47.808;7.636;2023-04-07T08:20:32;9.20;99.90
21031;DHT22;61072;47.808;7.636;2023-04-07T08:22:59;9.20;99.90
21031;DHT22;61072;47.808;7.636;2023-04-07T08:25:28;9.10;99.90
21031;DHT22;61072;47.808;7.636;2023-04-07T08:27:55;9.10;99.90
21031;DHT22;61072;47.808;7.636;2023-04-07T08:30:22;9.10;99.90
21031;DHT22;61072;47.808;7.636;2023-04-07T08:32:48;9.10;99.90
21031;DHT22;61072;47.808;7.636;2023-04-07T08:35:15;9.10;99.90
21031;DHT22;61072;47.808;7.636;2023-04-07T08:37:42;9.10;99.90
21031;DHT22;61072;47.808;7.636;2023-04-07T08:40:10;9.10;99.90
21031;DHT22;61072;47.808;7.636;2023-04-07T08:42:40;9.10;99.90
21031;DHT22;61072;47.808;7.636;2023-04-07T08:45:08;9.10;99.90
21031;DHT22;61072;47.808;7.636;2023-04-07T08:47:36;9.10;99.90
21031;DHT22;61072;47.808;7.636;2023-04-07T08:50:07;9.10;99.90
21031;DHT22;61072;47.808;7.636;2023-04-07T08:52:43;9.00;99.90
21031;DHT22;61072;47.808;7.636;2023-04-07T08:55:10;9.00;99.90
21031;DHT22;61072;47.808;7.636;2023-04-07T08:57:37;9.00;99.90
21031;DHT22;61072;47.808;7.636;2023-04-07T09:00:05;9.00;99.90
21031;DHT22;61072;47.808;7.636;2023-04-07T09:02:33;9.10;99.90
21031;DHT22;61072;47.808;7.636;2023-04-07T09:05:03;9.10;99.90
21031;DHT22;61072;47.808;7.636;2023-04-07T09:07:31;9.10;99.90
21031;DHT22;61072;47.808;7.636;2023-04-07T09:09:59;9.10;99.90
21031;DHT22;61072;47.808;7.636;2023-04-07T09:12:28;9.00;99.90
21031;DHT22;61072;47.808;7.636;2023-04-07T09:14:55;9.10;99.90
21031;DHT22;61072;47.808;7.636;2023-04-07T09:17:22;9.10;99.90
21031;DHT22;61072;47.808;7.636;2023-04-07T09:19:52;9.10;99.90
21031;DHT22;61072;47.808;7.636;2023-04-07T09:22:37;9.00;99.90
21031;DHT22;61072;47.808;7.636;2023-04-07T09:27:39;8.90;99.90
21031;DHT22;61072;47.808;7.636;2023-04-07T09:30:13;8.90;99.90
21031;DHT22;61072;47.808;7.636;2023-04-07T09:32:41;8.80;99.90
21031;DHT22;61072;47.808;7.636;2023-04-07T09:35:08;8.80;99.90
21031;DHT22;61072;47.808;7.636;2023-04-07T09:37:35;8.80;99.90
21031;DHT22;61072;47.808;7.636;2023-04-07T09:40:03;8.70;99.90
21031;DHT22;61072;47.808;7.636;2023-04-07T09:42:30;8.70;99.90
21031;DHT22;61072;47.808;7.636;2023-04-07T09:45:01;8.70;99.90
21031;DHT22;61072;47.808;7.636;2023-04-07T09:47:30;8.70;99.90
21031;DHT22;61072;47.808;7.636;2023-04-07T09:49:58;8.70;99.90
21031;DHT22;61072;47.808;7.636;2023-04-07T09:52:48;8.60;99.90
21031;DHT22;61072;47.808;7.636;2023-04-07T09:55:15;8.60;99.90
21031;DHT22;61072;47.808;7.636;2023-04-07T09:57:43;8.60;99.90
21031;DHT22;61072;47.808;7.636;2023-04-07T10:00:11;8.60;99.90
21031;DHT22;61072;47.808;7.636;2023-04-07T10:02:38;8.60;99.90
21031;DHT22;61072;47.808;7.636;2023-04-07T10:05:05;8.60;99.90
21031;DHT22;61072;47.808;7.636;2023-04-07T10:07:32;8.60;99.90
21031;DHT22;61072;47.808;7.636;2023-04-07T10:09:59;8.60;99.90
21031;DHT22;61072;47.808;7.636;2023-04-07T10:12:26;8.60;99.90
21031;DHT22;61072;47.808;7.636;2023-04-07T10:14:53;8.60;99.90
21031;DHT22;61072;47.808;7.636;2023-04-07T10:17:21;8.60;99.90
21031;DHT22;61072;47.808;7.636;2023-04-07T10:19:49;8.60;99.90
21031;DHT22;61072;47.808;7.636;2023-04-07T10:22:16;8.70;99.90
21031;DHT22;61072;47.808;7.636;2023-04-07T10:27:26;8.80;99.90
21031;DHT22;61072;47.808;7.636;2023-04-07T10:29:54;8.90;99.90
21031;DHT22;61072;47.808;7.636;2023-04-07T10:32:23;9.10;99.90
21031;DHT22;61072;47.808;7.636;2023-04-07T10:37:19;9.30;99.90
21031;DHT22;61072;47.808;7.636;2023-04-07T10:39:49;9.40;99.90
21031;DHT22;61072;47.808;7.636;2023-04-07T10:45:05;9.70;99.90
21031;DHT22;61072;47.808;7.636;2023-04-07T10:47:32;9.70;99.90
21031;DHT22;61072;47.808;7.636;2023-04-07T10:50:18;9.80;99.90
21031;DHT22;61072;47.808;7.636;2023-04-07T10:52:46;9.90;99.90
21031;DHT22;61072;47.808;7.636;2023-04-07T10:55:39;9.90;99.90
21031;DHT22;61072;47.808;7.636;2023-04-07T11:03:32;10.40;99.90
21031;DHT22;61072;47.808;7.636;2023-04-07T11:06:07;10.60;99.90
21031;DHT22;61072;47.808;7.636;2023-04-07T11:08:45;10.70;99.90
21031;DHT22;61072;47.808;7.636;2023-04-07T11:11:18;10.70;99.90
21031;DHT22;61072;47.808;7.636;2023-04-07T11:13:49;10.80;99.90
21031;DHT22;61072;47.808;7.636;2023-04-07T11:16:18;10.80;99.90
21031;DHT22;61072;47.808;7.636;2023-04-07T11:18:46;10.80;99.90
21031;DHT22;61072;47.808;7.636;2023-04-07T11:21:19;10.80;99.90
21031;DHT22;61072;47.808;7.636;2023-04-07T11:23:46;10.80;99.90
21031;DHT22;61072;47.808;7.636;2023-04-07T11:26:14;10.80;99.90
21031;DHT22;61072;47.808;7.636;2023-04-07T11:28:50;10.90;99.90
21031;DHT22;61072;47.808;7.636;2023-04-07T11:31:25;10.90;99.90
21031;DHT22;61072;47.808;7.636;2023-04-07T11:34:00;10.90;99.90
21031;DHT22;61072;47.808;7.636;2023-04-07T11:36:38;10.80;99.90
21031;DHT22;61072;47.808;7.636;2023-04-07T11:39:17;10.90;99.90
21031;DHT22;61072;47.808;7.636;2023-04-07T11:41:46;10.80;99.90
21031;DHT22;61072;47.808;7.636;2023-04-07T11:44:13;10.70;99.90
21031;DHT22;61072;47.808;7.636;2023-04-07T11:46:57;10.80;99.90
21031;DHT22;61072;47.808;7.636;2023-04-07T11:49:26;10.70;99.90
21031;DHT22;61072;47.808;7.636;2023-04-07T11:52:01;10.70;99.90
21031;DHT22;61072;47.808;7.636;2023-04-07T11:54:47;10.70;99.90
21031;DHT22;61072;47.808;7.636;2023-04-07T11:57:26;10.70;99.90
21031;DHT22;61072;47.808;7.636;2023-04-07T12:00:09;10.60;99.90
21031;DHT22;61072;47.808;7.636;2023-04-07T12:02:37;10.60;99.90
21031;DHT22;61072;47.808;7.636;2023-04-07T12:05:04;10.60;99.90
21031;DHT22;61072;47.808;7.636;2023-04-07T12:07:32;10.70;99.90
21031;DHT22;61072;47.808;7.636;2023-04-07T12:10:25;10.70;99.90
21031;DHT22;61072;47.808;7.636;2023-04-07T12:12:52;10.80;99.90
21031;DHT22;61072;47.808;7.636;2023-04-07T12:15:20;10.80;99.90
21031;DHT22;61072;47.808;7.636;2023-04-07T12:17:47;10.90;99.90
21031;DHT22;61072;47.808;7.636;2023-04-07T12:20:15;10.90;99.90
21031;DHT22;61072;47.808;7.636;2023-04-07T12:22:41;10.90;99.90
21031;DHT22;61072;47.808;7.636;2023-04-07T12:25:08;11.00;99.90
21031;DHT22;61072;47.808;7.636;2023-04-07T12:27:35;11.00;99.90
21031;DHT22;61072;47.808;7.636;2023-04-07T12:30:09;11.00;99.90
21031;DHT22;61072;47.808;7.636;2023-04-07T12:32:36;11.10;99.90
21031;DHT22;61072;47.808;7.636;2023-04-07T12:35:07;11.00;99.90
21031;DHT22;61072;47.808;7.636;2023-04-07T12:37:33;10.90;99.90
21031;DHT22;61072;47.808;7.636;2023-04-07T12:40:00;10.90;99.90
21031;DHT22;61072;47.808;7.636;2023-04-07T12:42:27;10.90;99.90
21031;DHT22;61072;47.808;7.636;2023-04-07T12:44:53;10.90;99.90
21031;DHT22;61072;47.808;7.636;2023-04-07T12:47:20;10.90;99.90
21031;DHT22;61072;47.808;7.636;2023-04-07T12:49:47;10.90;99.90
21031;DHT22;61072;47.808;7.636;2023-04-07T12:52:15;10.90;99.90
21031;DHT22;61072;47.808;7.636;2023-04-07T12:54:42;10.90;99.90
21031;DHT22;61072;47.808;7.636;2023-04-07T12:57:10;10.80;99.90
21031;DHT22;61072;47.808;7.636;2023-04-07T12:59:37;10.70;99.90
21031;DHT22;61072;47.808;7.636;2023-04-07T13:02:04;10.70;99.90
21031;DHT22;61072;47.808;7.636;2023-04-07T13:04:31;10.70;99.90
21031;DHT22;61072;47.808;7.636;2023-04-07T13:06:58;10.70;99.90
21031;DHT22;61072;47.808;7.636;2023-04-07T13:09:26;10.70;99.90
21031;DHT22;61072;47.808;7.636;2023-04-07T13:11:52;10.70;99.90
21031;DHT22;61072;47.808;7.636;2023-04-07T13:14:19;10.80;99.90
21031;DHT22;61072;47.808;7.636;2023-04-07T13:16:46;10.80;99.90
21031;DHT22;61072;47.808;7.636;2023-04-07T13:19:13;10.90;99.90
21031;DHT22;61072;47.808;7.636;2023-04-07T13:21:39;10.90;99.90
21031;DHT22;61072;47.808;7.636;2023-04-07T13:24:13;10.80;99.90
21031;DHT22;61072;47.808;7.636;2023-04-07T13:26:39;10.80;99.90
21031;DHT22;61072;47.808;7.636;2023-04-07T13:29:06;10.80;99.90
21031;DHT22;61072;47.808;7.636;2023-04-07T13:31:32;10.80;99.90
21031;DHT22;61072;47.808;7.636;2023-04-07T13:33:59;10.80;99.90
21031;DHT22;61072;47.808;7.636;2023-04-07T13:36:26;10.80;99.90
21031;DHT22;61072;47.808;7.636;2023-04-07T13:38:53;10.70;99.90
21031;DHT22;61072;47.808;7.636;2023-04-07T13:41:20;10.80;99.90
21031;DHT22;61072;47.808;7.636;2023-04-07T13:43:47;10.90;99.90
21031;DHT22;61072;47.808;7.636;2023-04-07T13:46:14;10.90;99.90
21031;DHT22;61072;47.808;7.636;2023-04-07T13:48:54;11.00;99.90
21031;DHT22;61072;47.808;7.636;2023-04-07T13:51:21;11.00;99.90
21031;DHT22;61072;47.808;7.636;2023-04-07T13:53:48;11.10;99.90
21031;DHT22;61072;47.808;7.636;2023-04-07T13:56:15;11.30;99.90
21031;DHT22;61072;47.808;7.636;2023-04-07T13:58:42;11.40;99.90
21031;DHT22;61072;47.808;7.636;2023-04-07T14:01:09;11.50;99.90
21031;DHT22;61072;47.808;7.636;2023-04-07T14:03:36;11.50;99.90
21031;DHT22;61072;47.808;7.636;2023-04-07T14:06:04;11.50;99.90
21031;DHT22;61072;47.808;7.636;2023-04-07T14:08:31;11.60;99.90
21031;DHT22;61072;47.808;7.636;2023-04-07T14:10:57;11.70;99.90
21031;DHT22;61072;47.808;7.636;2023-04-07T14:13:24;11.90;99.90
21031;DHT22;61072;47.808;7.636;2023-04-07T14:15:51;11.80;99.90
21031;DHT22;61072;47.808;7.636;2023-04-07T14:18:19;11.90;99.90
21031;DHT22;61072;47.808;7.636;2023-04-07T14:20:46;12.00;99.90
21031;DHT22;61072;47.808;7.636;2023-04-07T14:23:13;12.10;99.90
21031;DHT22;61072;47.808;7.636;2023-04-07T14:25:48;12.20;99.90
21031;DHT22;61072;47.808;7.636;2023-04-07T14:28:15;12.20;99.90
21031;DHT22;61072;47.808;7.636;2023-04-07T14:30:42;12.30;99.90
21031;DHT22;61072;47.808;7.636;2023-04-07T14:33:09;12.30;99.90
21031;DHT22;61072;47.808;7.636;2023-04-07T14:35:36;12.20;99.90
21031;DHT22;61072;47.808;7.636;2023-04-07T14:38:03;12.20;99.90
21031;DHT22;61072;47.808;7.636;2023-04-07T14:40:30;12.10;99.90
21031;DHT22;61072;47.808;7.636;2023-04-07T14:42:57;12.10;99.90
21031;DHT22;61072;47.808;7.636;2023-04-07T14:45:27;12.10;99.90
21031;DHT22;61072;47.808;7.636;2023-04-07T14:47:54;12.00;99.90
21031;DHT22;61072;47.808;7.636;2023-04-07T14:50:21;11.90;99.90
21031;DHT22;61072;47.808;7.636;2023-04-07T14:52:49;11.80;99.90
21031;DHT22;61072;47.808;7.636;2023-04-07T14:55:16;11.80;99.90
21031;DHT22;61072;47.808;7.636;2023-04-07T14:57:43;11.80;99.90
21031;DHT22;61072;47.808;7.636;2023-04-07T15:00:10;11.80;99.90
21031;DHT22;61072;47.808;7.636;2023-04-07T15:02:37;11.70;99.90
21031;DHT22;61072;47.808;7.636;2023-04-07T15:05:06;11.70;99.90
21031;DHT22;61072;47.808;7.636;2023-04-07T15:07:32;11.70;99.90
21031;DHT22;61072;47.808;7.636;2023-04-07T15:09:59;11.60;99.90
21031;DHT22;61072;47.808;7.636;2023-04-07T15:12:26;11.60;99.90
21031;DHT22;61072;47.808;7.636;2023-04-07T15:14:55;11.60;99.90
21031;DHT22;61072;47.808;7.636;2023-04-07T15:17:22;11.50;99.90
21031;DHT22;61072;47.808;7.636;2023-04-07T15:20:06;11.40;99.90
21031;DHT22;61072;47.808;7.636;2023-04-07T15:22:33;11.50;99.90
21031;DHT22;61072;47.808;7.636;2023-04-07T15:25:00;11.50;99.90
21031;DHT22;61072;47.808;7.636;2023-04-07T15:27:28;11.50;99.90
21031;DHT22;61072;47.808;7.636;2023-04-07T15:29:55;11.40;99.90
21031;DHT22;61072;47.808;7.636;2023-04-07T15:32:21;11.40;99.90
21031;DHT22;61072;47.808;7.636;2023-04-07T15:34:48;11.40;99.90
21031;DHT22;61072;47.808;7.636;2023-04-07T15:37:15;11.40;99.90
21031;DHT22;61072;47.808;7.636;2023-04-07T15:39:44;11.30;99.90
21031;DHT22;61072;47.808;7.636;2023-04-07T15:42:10;11.30;99.90
21031;DHT22;61072;47.808;7.636;2023-04-07T15:44:38;11.30;99.90
21031;DHT22;61072;47.808;7.636;2023-04-07T15:47:05;11.30;99.90
21031;DHT22;61072;47.808;7.636;2023-04-07T15:49:33;11.30;99.90
21031;DHT22;61072;47.808;7.636;2023-04-07T15:51:59;11.40;99.90
21031;DHT22;61072;47.808;7.636;2023-04-07T15:54:29;11.40;99.90
21031;DHT22;61072;47.808;7.636;2023-04-07T15:56:56;11.40;99.90
21031;DHT22;61072;47.808;7.636;2023-04-07T15:59:23;11.50;99.90
21031;DHT22;61072;47.808;7.636;2023-04-07T16:01:50;11.50;99.90
21031;DHT22;61072;47.808;7.636;2023-04-07T16:04:17;11.50;99.90